createdAt,value
2022-11-27T00:01:10.786Z,7.37
2022-11-27T00:03:38.668Z,7.34
2022-11-27T00:06:07.395Z,7.37
2022-11-27T00:08:35.210Z,7.36
2022-11-27T00:11:09.087Z,7.33
2022-11-27T00:13:37.185Z,7.35
2022-11-27T00:16:06.120Z,7.35
2022-11-27T00:18:34.075Z,7.37
2022-11-27T00:21:04.702Z,7.37
2022-11-27T00:23:34.133Z,7.33
2022-11-27T00:26:02.127Z,7.31
2022-11-27T00:28:31.408Z,7.29
2022-11-27T00:31:00.548Z,7.29
2022-11-27T00:33:28.537Z,7.30
2022-11-27T00:35:56.491Z,7.26
2022-11-27T00:38:24.247Z,7.25
2022-11-27T00:40:51.994Z,7.23
2022-11-27T00:43:19.696Z,7.25
2022-11-27T00:45:51.166Z,7.26
2022-11-27T00:48:18.883Z,7.23
2022-11-27T00:50:46.617Z,7.20
2022-11-27T00:53:14.328Z,7.16
2022-11-27T00:55:42.067Z,7.14
2022-11-27T00:58:09.838Z,7.14
2022-11-27T01:00:37.598Z,7.12
2022-11-27T01:03:06.914Z,7.09
2022-11-27T01:05:37.077Z,7.12
2022-11-27T01:08:04.973Z,7.11
2022-11-27T01:10:32.650Z,7.09
2022-11-27T01:13:00.415Z,7.10
2022-11-27T01:15:28.108Z,7.06
2022-11-27T01:17:55.814Z,7.08
2022-11-27T01:20:24.987Z,7.09
2022-11-27T01:22:52.708Z,7.06
2022-11-27T01:25:25.524Z,7.08
2022-11-27T01:27:54.743Z,7.09
2022-11-27T01:30:22.704Z,7.08
2022-11-27T01:32:50.416Z,7.07
2022-11-27T01:35:18.378Z,7.06
2022-11-27T01:37:47.500Z,7.07
2022-11-27T01:40:15.283Z,7.05
2022-11-27T01:42:43.021Z,7.03
2022-11-27T01:45:12.046Z,7.02
2022-11-27T01:47:46.702Z,7.02
2022-11-27T01:50:20.034Z,6.99
2022-11-27T01:52:53.358Z,6.93
2022-11-27T01:55:28.806Z,6.92
2022-11-27T01:58:01.149Z,6.89
2022-11-27T02:00:28.999Z,6.90
2022-11-27T02:02:56.781Z,6.90
2022-11-27T02:05:28.538Z,6.88
2022-11-27T02:07:59.878Z,6.86
2022-11-27T02:10:37.945Z,6.86
2022-11-27T02:13:11.094Z,6.84
2022-11-27T02:15:47.902Z,6.82
2022-11-27T02:18:26.176Z,6.80
2022-11-27T02:21:00.690Z,6.82
2022-11-27T02:23:54.056Z,6.80
2022-11-27T02:26:47.439Z,6.83
2022-11-27T02:29:21.991Z,6.80
2022-11-27T02:31:56.610Z,6.80
2022-11-27T02:34:28.676Z,6.77
2022-11-27T02:37:01.962Z,6.74
2022-11-27T02:39:36.106Z,6.71
2022-11-27T02:42:10.649Z,6.66
2022-11-27T02:44:46.040Z,6.64
2022-11-27T02:47:15.504Z,6.60
2022-11-27T02:49:45.278Z,6.57
2022-11-27T02:52:14.783Z,6.55
2022-11-27T02:54:44.715Z,6.54
2022-11-27T02:57:14.817Z,6.53
2022-11-27T02:59:45.763Z,6.51
2022-11-27T03:02:19.805Z,6.49
2022-11-27T03:04:54.844Z,6.48
2022-11-27T03:07:31.370Z,6.45
2022-11-27T03:10:04.806Z,6.45
2022-11-27T03:12:32.718Z,6.44
2022-11-27T03:15:01.856Z,6.44
2022-11-27T03:17:41.573Z,6.40
2022-11-27T03:20:16.576Z,6.41
2022-11-27T03:22:44.413Z,6.39
2022-11-27T03:25:12.341Z,6.39
2022-11-27T03:27:45.589Z,6.43
2022-11-27T03:30:15.318Z,6.46
2022-11-27T03:32:43.761Z,6.49
2022-11-27T03:35:14.646Z,6.51
2022-11-27T03:37:42.559Z,6.50
2022-11-27T03:40:13.017Z,6.51
2022-11-27T03:42:52.178Z,6.52
2022-11-27T03:45:31.149Z,6.54
2022-11-27T03:48:12.616Z,6.55
2022-11-27T03:50:52.513Z,6.56
2022-11-27T03:53:27.134Z,6.54
2022-11-27T03:56:06.776Z,6.50
2022-11-27T03:58:37.653Z,6.51
2022-11-27T04:01:12.112Z,6.51
2022-11-27T04:03:40.180Z,6.54
2022-11-27T04:06:08.015Z,6.57
2022-11-27T04:08:35.848Z,6.61
2022-11-27T04:11:03.537Z,6.61
2022-11-27T04:13:31.205Z,6.59
2022-11-27T04:16:01.415Z,6.61
2022-11-27T04:18:31.057Z,6.62
2022-11-27T04:20:59.072Z,6.65
2022-11-27T04:23:26.843Z,6.65
2022-11-27T04:25:54.615Z,6.65
2022-11-27T04:28:22.413Z,6.67
2022-11-27T04:30:53.813Z,6.70
2022-11-27T04:33:21.803Z,6.72
2022-11-27T04:35:51.400Z,6.72
2022-11-27T04:38:19.212Z,6.74
2022-11-27T04:40:46.966Z,6.74
2022-11-27T04:43:15.087Z,6.76
2022-11-27T04:45:44.360Z,6.77
2022-11-27T04:48:12.257Z,6.82
2022-11-27T04:50:40.126Z,6.81
2022-11-27T04:53:09.305Z,6.82
2022-11-27T04:55:37.236Z,6.85
2022-11-27T04:58:05.031Z,6.84
2022-11-27T05:00:34.054Z,6.89
2022-11-27T05:03:01.893Z,6.88
2022-11-27T05:05:29.662Z,6.90
2022-11-27T05:07:57.506Z,6.89
2022-11-27T05:10:26.782Z,6.89
2022-11-27T05:12:54.522Z,6.88
2022-11-27T05:15:22.339Z,6.91
2022-11-27T05:17:50.254Z,6.93
2022-11-27T05:20:18.521Z,6.91
2022-11-27T05:22:48.185Z,6.92
2022-11-27T05:25:16.099Z,6.95
2022-11-27T05:27:45.432Z,6.96
2022-11-27T05:30:13.583Z,6.98
2022-11-27T05:32:41.399Z,6.98
2022-11-27T05:35:09.862Z,7.04
2022-11-27T05:37:37.635Z,7.02
2022-11-27T05:40:06.525Z,7.00
2022-11-27T05:42:34.224Z,6.97
2022-11-27T05:45:03.383Z,7.00
2022-11-27T05:47:31.057Z,7.01
2022-11-27T05:49:58.742Z,6.99
2022-11-27T05:52:26.503Z,6.99
2022-11-27T05:54:54.992Z,6.98
2022-11-27T05:57:22.700Z,6.97
2022-11-27T05:59:50.427Z,6.98
2022-11-27T06:02:23.734Z,6.98
2022-11-27T06:04:54.217Z,6.98
2022-11-27T06:07:21.956Z,6.97
2022-11-27T06:09:49.699Z,7.00
2022-11-27T06:12:17.490Z,7.04
2022-11-27T06:14:45.243Z,7.04
2022-11-27T06:17:15.619Z,7.07
2022-11-27T06:19:44.883Z,7.07
2022-11-27T06:22:12.621Z,7.07
2022-11-27T06:24:40.741Z,7.08
2022-11-27T06:27:08.946Z,7.09
2022-11-27T06:29:37.988Z,7.10
2022-11-27T06:32:06.587Z,7.12
2022-11-27T06:34:34.458Z,7.13
2022-11-27T06:37:03.625Z,7.16
2022-11-27T06:39:31.442Z,7.17
2022-11-27T06:41:59.148Z,7.19
2022-11-27T06:44:26.954Z,7.20
2022-11-27T06:46:54.762Z,7.19
2022-11-27T06:49:22.673Z,7.20
2022-11-27T06:51:50.807Z,7.19
2022-11-27T06:54:19.929Z,7.16
2022-11-27T06:56:51.886Z,7.14
2022-11-27T06:59:24.533Z,7.12
2022-11-27T07:01:52.375Z,7.16
2022-11-27T07:04:20.134Z,7.20
2022-11-27T07:06:47.850Z,7.19
2022-11-27T07:09:15.629Z,7.21
2022-11-27T07:11:44.794Z,7.23
2022-11-27T07:14:12.592Z,7.27
2022-11-27T07:16:40.507Z,7.29
2022-11-27T07:19:09.095Z,7.34
2022-11-27T07:21:37.543Z,7.37
2022-11-27T07:24:05.624Z,7.38
2022-11-27T07:26:33.698Z,7.38
2022-11-27T07:29:02.992Z,7.39
2022-11-27T07:31:32.017Z,7.41
2022-11-27T07:34:00.300Z,7.39
2022-11-27T07:36:30.550Z,7.43
2022-11-27T07:38:59.114Z,7.46
2022-11-27T07:41:32.430Z,7.49
2022-11-27T07:44:03.046Z,7.50
2022-11-27T07:46:31.245Z,7.51
2022-11-27T07:49:00.408Z,7.55
2022-11-27T07:51:28.651Z,7.58
2022-11-27T07:53:56.439Z,7.60
2022-11-27T07:56:24.150Z,7.63
2022-11-27T07:58:51.984Z,7.65
2022-11-27T08:01:21.692Z,7.68
2022-11-27T08:03:49.616Z,7.71
2022-11-27T08:06:19.477Z,7.77
2022-11-27T08:08:47.546Z,7.82
2022-11-27T08:11:21.127Z,7.86
2022-11-27T08:13:49.469Z,7.93
2022-11-27T08:16:17.823Z,7.99
2022-11-27T08:18:47.179Z,8.04
2022-11-27T08:21:15.590Z,8.10
2022-11-27T08:23:43.491Z,8.16
2022-11-27T08:26:12.668Z,8.23
2022-11-27T08:28:41.849Z,8.29
2022-11-27T08:31:12.067Z,8.32
2022-11-27T08:33:40.026Z,8.35
2022-11-27T08:36:14.974Z,8.39
2022-11-27T08:38:45.534Z,8.44
2022-11-27T08:41:13.310Z,8.46
2022-11-27T08:43:41.143Z,8.49
2022-11-27T08:46:09.887Z,8.56
2022-11-27T08:48:38.026Z,8.61
2022-11-27T08:51:07.798Z,8.63
2022-11-27T08:53:37.702Z,8.63
2022-11-27T08:56:10.644Z,8.62
2022-11-27T08:58:40.935Z,8.61
2022-11-27T09:01:10.755Z,8.59
2022-11-27T09:03:38.830Z,8.60
2022-11-27T09:06:11.372Z,8.62
2022-11-27T09:08:40.827Z,8.63
2022-11-27T09:11:09.507Z,8.64
2022-11-27T09:13:37.700Z,8.71
2022-11-27T09:16:05.630Z,8.75
2022-11-27T09:18:33.615Z,8.77
2022-11-27T09:21:05.163Z,8.83
2022-11-27T09:23:33.495Z,8.89
2022-11-27T09:26:04.074Z,8.94
2022-11-27T09:28:33.467Z,8.97
2022-11-27T09:31:03.387Z,9.01
2022-11-27T09:33:32.892Z,9.05
2022-11-27T09:36:05.810Z,9.07
2022-11-27T09:38:33.897Z,9.13
2022-11-27T09:41:13.176Z,9.17
2022-11-27T09:43:45.772Z,9.22
2022-11-27T09:46:20.276Z,9.26
2022-11-27T09:48:51.732Z,9.33
2022-11-27T09:51:29.568Z,9.39
2022-11-27T09:54:03.039Z,9.42
2022-11-27T09:56:36.218Z,9.47
2022-11-27T09:59:09.665Z,9.50
2022-11-27T10:01:45.244Z,9.58
2022-11-27T10:04:20.819Z,9.56
2022-11-27T10:07:13.405Z,9.61
2022-11-27T10:09:55.109Z,9.60
2022-11-27T10:12:34.141Z,9.62
2022-11-27T10:15:08.508Z,9.64
2022-11-27T10:17:41.072Z,9.66
2022-11-27T10:20:15.905Z,9.66
2022-11-27T10:22:51.379Z,9.67
2022-11-27T10:25:22.075Z,9.68
2022-11-27T10:28:04.018Z,9.68
2022-11-27T10:30:37.735Z,9.65
2022-11-27T10:33:17.262Z,9.62
2022-11-27T10:35:48.653Z,9.62
2022-11-27T10:38:20.472Z,9.64
2022-11-27T10:40:54.558Z,9.65
2022-11-27T10:43:25.303Z,9.64
2022-11-27T10:45:55.557Z,9.60
2022-11-27T10:48:24.063Z,9.56
2022-11-27T10:50:52.211Z,9.52
2022-11-27T10:53:27.502Z,9.56
2022-11-27T10:56:32.463Z,9.59
2022-11-27T10:59:04.504Z,9.58
2022-11-27T11:01:43.987Z,9.54
2022-11-27T11:04:36.379Z,9.52
2022-11-27T11:07:02.744Z,9.55
2022-11-27T11:09:32.247Z,9.54
2022-11-27T11:12:08.717Z,9.56
2022-11-27T11:14:38.151Z,9.59
2022-11-27T11:17:17.034Z,9.62
2022-11-27T11:19:45.949Z,9.67
2022-11-27T11:22:16.295Z,9.73
2022-11-27T11:24:47.845Z,9.77
2022-11-27T11:27:18.436Z,9.78
2022-11-27T11:29:51.881Z,9.82
2022-11-27T11:32:24.820Z,9.88
2022-11-27T11:35:00.903Z,9.91
2022-11-27T11:37:31.533Z,9.87
2022-11-27T11:40:01.990Z,9.90
2022-11-27T11:42:31.912Z,9.92
2022-11-27T11:45:07.108Z,9.97
2022-11-27T11:47:36.766Z,9.95
2022-11-27T11:50:05.070Z,9.97
2022-11-27T11:52:48.098Z,10.00
2022-11-27T11:55:21.002Z,10.02
2022-11-27T11:58:03.648Z,10.05
2022-11-27T12:00:58.460Z,10.06
2022-11-27T12:03:36.182Z,10.13
2022-11-27T12:06:32.865Z,10.17
2022-11-27T12:09:09.442Z,10.19
2022-11-27T12:11:45.431Z,10.26
2022-11-27T12:14:23.572Z,10.30
2022-11-27T12:17:02.819Z,10.34
2022-11-27T12:19:55.774Z,10.37
2022-11-27T12:22:37.061Z,10.33
2022-11-27T12:25:18.692Z,10.34
2022-11-27T12:28:02.391Z,10.36
2022-11-27T12:30:41.967Z,10.39
2022-11-27T12:33:44.864Z,10.46
2022-11-27T12:36:23.416Z,10.46
2022-11-27T12:39:10.228Z,10.50
2022-11-27T12:41:50.825Z,10.50
2022-11-27T12:44:26.287Z,10.53
2022-11-27T12:46:59.768Z,10.53
2022-11-27T12:49:33.488Z,10.51
2022-11-27T12:52:10.918Z,10.52
2022-11-27T12:54:44.377Z,10.53
2022-11-27T12:57:17.645Z,10.49
2022-11-27T12:59:51.871Z,10.51
2022-11-27T13:02:39.629Z,10.52
2022-11-27T13:05:13.319Z,10.54
2022-11-27T13:07:47.979Z,10.56
2022-11-27T13:10:24.499Z,10.61
2022-11-27T13:13:03.040Z,10.65
2022-11-27T13:15:35.525Z,10.69
2022-11-27T13:18:06.122Z,10.73
2022-11-27T13:20:39.862Z,10.74
2022-11-27T13:23:07.625Z,10.75
2022-11-27T13:25:42.877Z,10.79
2022-11-27T13:28:22.191Z,10.82
2022-11-27T13:30:52.651Z,10.82
2022-11-27T13:33:34.116Z,10.83
2022-11-27T13:36:07.026Z,10.85
2022-11-27T13:38:37.471Z,10.82
2022-11-27T13:41:06.919Z,10.82
2022-11-27T13:43:43.311Z,10.79
2022-11-27T13:46:16.201Z,10.81
2022-11-27T13:48:49.246Z,10.80
2022-11-27T13:51:27.659Z,10.80
2022-11-27T13:54:07.310Z,10.76
2022-11-27T13:56:35.154Z,10.72
2022-11-27T13:59:14.481Z,10.68
2022-11-27T14:01:53.856Z,10.63
2022-11-27T14:04:21.617Z,10.61
2022-11-27T14:06:57.537Z,10.60
2022-11-27T14:09:34.685Z,10.57
2022-11-27T14:12:02.527Z,10.53
2022-11-27T14:14:30.579Z,10.53
2022-11-27T14:17:02.645Z,10.49
2022-11-27T14:19:34.903Z,10.48
2022-11-27T14:22:15.691Z,10.48
2022-11-27T14:24:45.862Z,10.45
2022-11-27T14:27:19.954Z,10.39
2022-11-27T14:29:47.763Z,10.40
2022-11-27T14:32:17.309Z,10.39
2022-11-27T14:34:46.093Z,10.41
2022-11-27T14:37:27.035Z,10.39
2022-11-27T14:39:55.262Z,10.40
2022-11-27T14:42:29.043Z,10.38
2022-11-27T14:45:06.452Z,10.33
2022-11-27T14:47:35.110Z,10.29
2022-11-27T14:50:03.946Z,10.25
2022-11-27T14:52:33.214Z,10.25
2022-11-27T14:55:02.267Z,10.26
2022-11-27T14:57:31.904Z,10.26
2022-11-27T15:00:17.232Z,10.25
2022-11-27T15:02:45.383Z,10.20
2022-11-27T15:05:23.028Z,10.13
2022-11-27T15:07:54.871Z,10.10
2022-11-27T15:10:33.347Z,10.05
2022-11-27T15:13:02.500Z,10.00
2022-11-27T15:15:34.880Z,10.01
2022-11-27T15:18:05.864Z,9.99
2022-11-27T15:20:39.615Z,9.99
2022-11-27T15:23:17.429Z,9.97
2022-11-27T15:25:47.685Z,9.96
2022-11-27T15:28:36.104Z,9.95
2022-11-27T15:31:22.448Z,9.97
2022-11-27T15:33:59.690Z,9.98
2022-11-27T15:36:28.225Z,9.97
2022-11-27T15:39:17.420Z,9.96
2022-11-27T15:41:52.562Z,9.92
2022-11-27T15:44:20.342Z,9.91
2022-11-27T15:46:48.322Z,9.93
2022-11-27T15:49:16.226Z,9.92
2022-11-27T15:51:44.539Z,9.94
2022-11-27T15:54:13.638Z,9.95
2022-11-27T15:56:41.504Z,9.94
2022-11-27T15:59:10.085Z,9.95
2022-11-27T16:01:38.250Z,9.97
2022-11-27T16:04:06.257Z,9.96
2022-11-27T16:06:36.293Z,9.95
2022-11-27T16:09:05.596Z,9.94
2022-11-27T16:11:34.744Z,9.93
2022-11-27T16:14:02.597Z,9.93
2022-11-27T16:16:31.185Z,9.95
2022-11-27T16:18:59.863Z,9.99
2022-11-27T16:21:29.975Z,9.99
2022-11-27T16:24:01.475Z,10.00
2022-11-27T16:26:29.855Z,10.00
2022-11-27T16:28:59.379Z,9.99
2022-11-27T16:31:28.032Z,10.00
2022-11-27T16:33:55.823Z,10.01
2022-11-27T16:36:24.082Z,9.98
2022-11-27T16:38:54.195Z,9.98
2022-11-27T16:41:23.304Z,9.98
2022-11-27T16:43:55.124Z,9.94
2022-11-27T16:46:26.887Z,9.91
2022-11-27T16:48:55.897Z,9.91
2022-11-27T16:51:25.778Z,9.89
2022-11-27T16:53:55.131Z,9.83
2022-11-27T16:56:25.138Z,9.81
2022-11-27T16:58:56.722Z,9.84
2022-11-27T17:01:30.302Z,9.84
2022-11-27T17:03:58.172Z,9.84
2022-11-27T17:06:27.854Z,9.84
2022-11-27T17:08:56.485Z,9.81
2022-11-27T17:11:26.816Z,9.82
2022-11-27T17:13:58.099Z,9.82
2022-11-27T17:16:26.460Z,9.78
2022-11-27T17:18:55.806Z,9.77
2022-11-27T17:21:26.382Z,9.77
2022-11-27T17:23:56.159Z,9.77
2022-11-27T17:26:25.695Z,9.75
2022-11-27T17:28:56.035Z,9.71
2022-11-27T17:31:26.633Z,9.69
2022-11-27T17:33:57.384Z,9.68
2022-11-27T17:36:25.533Z,9.67
2022-11-27T17:38:53.607Z,9.66
2022-11-27T17:41:24.838Z,9.68
2022-11-27T17:43:52.581Z,9.65
2022-11-27T17:46:22.473Z,9.65
2022-11-27T17:48:50.682Z,9.63
2022-11-27T17:51:20.242Z,9.63
2022-11-27T17:53:48.619Z,9.62
2022-11-27T17:56:18.386Z,9.60
2022-11-27T17:58:46.218Z,9.59
2022-11-27T18:01:17.342Z,9.56
2022-11-27T18:03:46.190Z,9.57
2022-11-27T18:06:14.836Z,9.61
2022-11-27T18:08:45.093Z,9.60
2022-11-27T18:11:14.805Z,9.61
2022-11-27T18:13:42.569Z,9.61
2022-11-27T18:16:12.389Z,9.64
2022-11-27T18:18:40.789Z,9.64
2022-11-27T18:21:14.022Z,9.66
2022-11-27T18:24:14.923Z,9.66
2022-11-27T18:29:24.011Z,9.64
2022-11-27T18:31:53.237Z,9.64
2022-11-27T18:34:20.987Z,9.63
2022-11-27T18:36:54.710Z,9.65
2022-11-27T18:39:23.846Z,9.64
2022-11-27T18:41:51.558Z,9.63
2022-11-27T18:44:19.479Z,9.59
2022-11-27T18:46:47.472Z,9.59
2022-11-27T18:49:15.214Z,9.61
2022-11-27T18:51:42.973Z,9.63
2022-11-27T18:54:10.628Z,9.62
2022-11-27T18:56:39.750Z,9.64
2022-11-27T18:59:08.376Z,9.62
2022-11-27T19:01:42.052Z,9.65
2022-11-27T19:04:12.284Z,9.64
2022-11-27T19:06:42.097Z,9.63
2022-11-27T19:09:11.521Z,9.65
2022-11-27T19:11:41.024Z,9.66
2022-11-27T19:14:09.333Z,9.63
2022-11-27T19:16:42.117Z,9.63
2022-11-27T19:19:38.956Z,9.65
2022-11-27T19:21:58.177Z,9.61
2022-11-27T19:24:25.839Z,9.59
2022-11-27T19:26:54.956Z,9.61
2022-11-27T19:29:22.635Z,9.60
2022-11-27T19:31:50.473Z,9.59
2022-11-27T19:34:18.266Z,9.57
2022-11-27T19:36:46.013Z,9.57
2022-11-27T19:39:15.918Z,9.54
2022-11-27T19:41:44.051Z,9.52
2022-11-27T19:44:14.313Z,9.49
2022-11-27T19:46:42.278Z,9.45
2022-11-27T19:49:14.050Z,9.42
2022-11-27T19:51:42.240Z,9.40
2022-11-27T19:54:12.768Z,9.40
2022-11-27T19:56:42.205Z,9.40
2022-11-27T19:59:10.922Z,9.38
2022-11-27T20:01:40.713Z,9.35
2022-11-27T20:04:10.432Z,9.31
2022-11-27T20:06:41.081Z,9.32
2022-11-27T20:09:08.940Z,9.30
2022-11-27T20:11:37.089Z,9.25
2022-11-27T20:14:06.324Z,9.23
2022-11-27T20:16:34.840Z,9.25
2022-11-27T20:19:07.228Z,9.27
2022-11-27T20:21:36.539Z,9.23
2022-11-27T20:24:09.545Z,9.23
2022-11-27T20:26:42.461Z,9.22
2022-11-27T20:29:10.853Z,9.21
2022-11-27T20:31:40.244Z,9.24
2022-11-27T20:34:10.060Z,9.25
2022-11-27T20:36:41.042Z,9.26
2022-11-27T20:39:13.008Z,9.29
2022-11-27T20:41:42.905Z,9.26
2022-11-27T20:44:11.591Z,9.27
2022-11-27T20:46:39.349Z,9.30
2022-11-27T20:49:07.138Z,9.29
2022-11-27T20:51:39.845Z,9.31
2022-11-27T20:54:07.850Z,9.31
2022-11-27T20:56:41.880Z,9.31
2022-11-27T20:59:09.749Z,9.31
2022-11-27T21:01:38.732Z,9.24
2022-11-27T21:04:09.525Z,9.29
2022-11-27T21:06:43.660Z,9.32
2022-11-27T21:09:16.437Z,9.29
2022-11-27T21:11:45.195Z,9.31
2022-11-27T21:14:15.291Z,9.35
2022-11-27T21:16:46.114Z,9.39
2022-11-27T21:19:16.496Z,9.40
2022-11-27T21:21:45.678Z,9.40
2022-11-27T21:24:14.052Z,9.42
2022-11-27T21:26:42.019Z,9.41
2022-11-27T21:29:10.890Z,9.45
2022-11-27T21:31:42.659Z,9.45
2022-11-27T21:34:13.250Z,9.45
2022-11-27T21:36:41.011Z,9.48
2022-11-27T21:39:13.164Z,9.47
2022-11-27T21:41:41.045Z,9.47
2022-11-27T21:44:08.766Z,9.48
2022-11-27T21:46:37.507Z,9.52
2022-11-27T21:49:05.584Z,9.53
2022-11-27T21:51:33.391Z,9.55
2022-11-27T21:54:01.101Z,9.49
2022-11-27T21:56:32.269Z,9.47
2022-11-27T21:58:59.971Z,9.39
2022-11-27T22:01:29.232Z,9.34
2022-11-27T22:03:58.663Z,9.32
2022-11-27T22:06:28.492Z,9.30
2022-11-27T22:08:58.031Z,9.29
2022-11-27T22:11:28.729Z,9.26
2022-11-27T22:13:58.910Z,9.25
2022-11-27T22:16:28.048Z,9.23
2022-11-27T22:18:57.342Z,9.18
2022-11-27T22:21:27.220Z,9.18
2022-11-27T22:23:55.130Z,9.20
2022-11-27T22:26:24.368Z,9.18
2022-11-27T22:28:52.390Z,9.18
2022-11-27T22:31:24.077Z,9.14
2022-11-27T22:33:52.095Z,9.12
2022-11-27T22:36:21.644Z,9.08
2022-11-27T22:38:52.271Z,9.10
2022-11-27T22:41:21.028Z,9.04
2022-11-27T22:43:48.859Z,9.02
2022-11-27T22:46:18.642Z,9.03
2022-11-27T22:48:48.090Z,9.00
2022-11-27T22:51:15.888Z,9.00
2022-11-27T22:53:43.564Z,8.99
2022-11-27T22:56:13.087Z,8.99
2022-11-27T22:58:42.093Z,8.96
2022-11-27T23:01:14.633Z,8.95
2022-11-27T23:03:42.283Z,8.94
2022-11-27T23:06:12.823Z,8.90
2022-11-27T23:08:40.946Z,8.87
2022-11-27T23:11:09.443Z,8.90
2022-11-27T23:13:37.562Z,8.87
2022-11-27T23:16:07.084Z,8.83
2022-11-27T23:18:35.505Z,8.83
2022-11-27T23:21:06.574Z,8.87
2022-11-27T23:23:35.762Z,8.86
2022-11-27T23:26:04.903Z,8.86
2022-11-27T23:28:32.653Z,8.86
2022-11-27T23:31:22.642Z,8.85
2022-11-27T23:33:53.184Z,8.80
2022-11-27T23:36:21.025Z,8.81
2022-11-27T23:38:50.179Z,8.83
2022-11-27T23:41:20.233Z,8.74
2022-11-27T23:43:48.344Z,8.72
2022-11-27T23:46:18.084Z,8.68
2022-11-27T23:48:46.568Z,8.70
2022-11-27T23:51:16.257Z,8.70
2022-11-27T23:53:43.966Z,8.69
2022-11-27T23:56:15.314Z,8.70
2022-11-27T23:58:47.002Z,8.70
